Terminal Aerodrome Forecast
Issued by NWS

Home | Current Version | Previous Version | Text Only | Print | Product List | Glossary On
Versions: 1 2 3 4 5 6 7 8 9 10 11 12 13 14
000
FTUS45 KVEF 311100
TAFVGT
TAF
KVGT 311120Z 3112/0112 34006KT P6SM VCSH FEW010 BKN040
     FM311700 34011G18KT P6SM SCT035 BKN050
     FM312200 02011KT P6SM FEW050 SCT080
     FM010400 34012KT P6SM SKC=

USA.gov is the U.S. government's official web portal to all federal, state and local government web resources and services.